createdAt,value
2022-08-14T00:02:24.654Z,25.48
2022-08-14T00:04:59.710Z,25.45
2022-08-14T00:07:31.778Z,25.41
2022-08-14T00:10:49.747Z,25.40
2022-08-14T00:13:06.800Z,25.40
2022-08-14T00:15:48.413Z,25.38
2022-08-14T00:18:30.966Z,25.35
2022-08-14T00:21:15.976Z,25.34
2022-08-14T00:23:53.796Z,25.34
2022-08-14T00:26:26.344Z,25.33
2022-08-14T00:28:58.360Z,25.35
2022-08-14T00:31:44.474Z,25.36
2022-08-14T00:34:37.243Z,25.34
2022-08-14T00:37:10.049Z,25.35
2022-08-14T00:39:42.604Z,25.33
2022-08-14T00:42:21.269Z,25.34
2022-08-14T00:45:11.464Z,25.34
2022-08-14T00:47:48.305Z,25.34
2022-08-14T00:50:22.133Z,25.36
2022-08-14T00:52:54.369Z,25.32
2022-08-14T00:55:30.006Z,25.31
2022-08-14T00:58:32.882Z,25.30
2022-08-14T01:01:11.086Z,25.26
2022-08-14T01:03:43.760Z,25.25
2022-08-14T01:06:18.559Z,25.26
2022-08-14T01:08:58.147Z,25.24
2022-08-14T01:11:36.123Z,25.24
2022-08-14T01:14:25.654Z,25.23
2022-08-14T01:17:00.488Z,25.21
2022-08-14T01:19:50.805Z,25.21
2022-08-14T01:22:26.959Z,25.15
2022-08-14T01:25:01.496Z,25.10
2022-08-14T01:27:41.007Z,25.07
2022-08-14T01:30:28.226Z,25.05
2022-08-14T01:33:00.278Z,25.02
2022-08-14T01:36:05.388Z,25.01
2022-08-14T01:38:26.501Z,24.97
2022-08-14T01:40:58.838Z,24.98
2022-08-14T01:43:31.035Z,24.91
2022-08-14T01:46:11.605Z,24.85
2022-08-14T01:48:57.525Z,24.88
2022-08-14T01:51:33.729Z,24.88
2022-08-14T01:54:14.196Z,24.88
2022-08-14T01:56:47.090Z,24.85
2022-08-14T01:59:24.104Z,24.84
2022-08-14T02:02:09.986Z,24.81
2022-08-14T02:04:55.529Z,24.74
2022-08-14T02:07:44.648Z,24.73
2022-08-14T02:10:26.253Z,24.68
2022-08-14T02:12:59.590Z,24.67
2022-08-14T02:15:31.725Z,24.65
2022-08-14T02:18:04.500Z,24.61
2022-08-14T02:20:36.537Z,24.57
2022-08-14T02:23:09.058Z,24.55
2022-08-14T02:25:41.174Z,24.50
2022-08-14T02:28:24.233Z,24.47
2022-08-14T02:31:09.120Z,24.40
2022-08-14T02:33:43.001Z,24.35
2022-08-14T02:37:04.922Z,24.29
2022-08-14T02:39:10.755Z,24.28
2022-08-14T02:41:52.440Z,24.25
2022-08-14T02:44:29.735Z,24.24
2022-08-14T02:47:03.015Z,24.24
2022-08-14T02:49:39.708Z,24.26
2022-08-14T02:52:56.753Z,24.26
2022-08-14T02:55:07.317Z,24.23
2022-08-14T02:57:41.061Z,24.21
2022-08-14T03:00:18.542Z,24.20
2022-08-14T03:02:58.923Z,24.16
2022-08-14T03:05:35.992Z,24.14
2022-08-14T03:08:15.346Z,24.13
2022-08-14T03:10:50.006Z,24.12
2022-08-14T03:13:22.315Z,24.08
2022-08-14T03:15:57.876Z,24.09
2022-08-14T03:18:32.607Z,24.07
2022-08-14T03:21:08.042Z,24.10
2022-08-14T03:23:41.725Z,24.09
2022-08-14T03:26:29.883Z,24.08
2022-08-14T03:29:03.831Z,24.07
2022-08-14T03:31:36.554Z,24.07
2022-08-14T03:34:24.650Z,24.06
2022-08-14T03:37:51.539Z,24.04
2022-08-14T03:39:56.624Z,24.01
2022-08-14T03:42:31.049Z,24.00
2022-08-14T03:45:20.348Z,23.98
2022-08-14T03:48:27.463Z,23.95
2022-08-14T03:51:03.416Z,23.94
2022-08-14T03:53:38.060Z,23.93
2022-08-14T03:56:14.447Z,23.86
2022-08-14T03:59:18.094Z,23.81
2022-08-14T04:01:57.972Z,23.80
2022-08-14T04:04:34.014Z,23.78
2022-08-14T04:07:05.993Z,23.75
2022-08-14T04:09:38.430Z,23.72
2022-08-14T04:12:13.476Z,23.69
2022-08-14T04:14:46.364Z,23.65
2022-08-14T04:17:20.236Z,23.61
2022-08-14T04:19:54.434Z,23.58
2022-08-14T04:22:26.497Z,23.51
2022-08-14T04:25:04.902Z,23.53
2022-08-14T04:28:01.942Z,23.54
2022-08-14T04:30:32.655Z,23.55
2022-08-14T04:33:15.866Z,23.57
2022-08-14T04:35:56.337Z,23.62
2022-08-14T04:38:47.301Z,23.64
2022-08-14T04:41:53.926Z,23.60
2022-08-14T04:44:26.674Z,23.64
2022-08-14T04:47:27.105Z,23.62
2022-08-14T04:50:06.739Z,23.62
2022-08-14T04:52:39.447Z,23.62
2022-08-14T04:55:11.604Z,23.66
2022-08-14T04:57:43.595Z,23.66
2022-08-14T05:00:18.116Z,23.66
2022-08-14T05:02:50.292Z,23.66
2022-08-14T05:05:23.247Z,23.68
2022-08-14T05:08:01.790Z,23.71
2022-08-14T05:10:33.960Z,23.74
2022-08-14T05:13:13.449Z,23.78
2022-08-14T05:15:47.940Z,23.80
2022-08-14T05:18:37.192Z,23.85
2022-08-14T05:22:00.240Z,23.85
2022-08-14T05:24:17.823Z,23.91
2022-08-14T05:26:50.957Z,23.94
2022-08-14T05:29:23.727Z,23.97
2022-08-14T05:31:57.361Z,23.99
2022-08-14T05:34:31.566Z,24.03
2022-08-14T05:37:06.820Z,24.09
2022-08-14T05:39:41.316Z,24.14
2022-08-14T05:42:22.200Z,24.21
2022-08-14T05:44:59.892Z,24.26
2022-08-14T05:47:34.170Z,24.32
2022-08-14T05:50:17.372Z,24.38
2022-08-14T05:52:51.621Z,24.41
2022-08-14T05:55:24.079Z,24.46
2022-08-14T05:57:59.959Z,24.47
2022-08-14T06:00:40.113Z,24.49
2022-08-14T06:03:16.545Z,24.43
2022-08-14T06:05:53.309Z,24.47
2022-08-14T06:08:36.301Z,24.52
2022-08-14T06:11:14.935Z,24.56
2022-08-14T06:13:52.600Z,24.60
2022-08-14T06:16:24.564Z,24.62
2022-08-14T06:18:59.656Z,24.66
2022-08-14T06:21:31.796Z,24.69
2022-08-14T06:24:05.269Z,24.73
2022-08-14T06:26:42.582Z,24.81
2022-08-14T06:29:24.017Z,24.84
2022-08-14T06:32:00.393Z,24.82
2022-08-14T06:35:03.661Z,24.79
2022-08-14T06:37:51.969Z,24.85
2022-08-14T06:40:28.772Z,24.95
2022-08-14T06:43:07.446Z,25.07
2022-08-14T06:45:42.073Z,24.95
2022-08-14T06:48:24.098Z,24.94
2022-08-14T06:50:57.823Z,24.96
2022-08-14T06:53:30.212Z,24.97
2022-08-14T06:56:02.586Z,24.99
2022-08-14T06:58:35.709Z,25.03
2022-08-14T07:01:27.910Z,25.09
2022-08-14T07:04:23.749Z,25.10
2022-08-14T07:06:59.598Z,25.22
2022-08-14T07:09:43.647Z,25.32
2022-08-14T07:12:55.083Z,25.33
2022-08-14T07:15:15.594Z,25.45
2022-08-14T07:17:52.141Z,25.49
2022-08-14T07:20:31.165Z,25.61
2022-08-14T07:23:10.831Z,25.66
2022-08-14T07:25:44.822Z,25.74
2022-08-14T07:28:29.718Z,25.84
2022-08-14T07:31:05.828Z,25.92
2022-08-14T07:33:50.814Z,25.81
2022-08-14T07:36:30.320Z,26.04
2022-08-14T07:39:13.179Z,26.04
2022-08-14T07:41:45.346Z,26.19
2022-08-14T07:44:32.567Z,26.27
2022-08-14T07:47:08.085Z,26.20
2022-08-14T07:49:41.531Z,26.45
2022-08-14T07:52:15.495Z,26.72
2022-08-14T07:54:55.013Z,27.01
2022-08-14T07:57:27.886Z,27.25
2022-08-14T07:59:59.928Z,27.85
2022-08-14T08:02:32.837Z,28.51
2022-08-14T08:05:06.767Z,29.56
2022-08-14T08:07:40.528Z,29.45
2022-08-14T08:11:02.469Z,30.39
2022-08-14T08:13:29.349Z,30.63
2022-08-14T08:16:03.370Z,31.20
2022-08-14T08:18:36.309Z,31.37
2022-08-14T08:21:08.527Z,31.97
2022-08-14T08:23:43.570Z,32.38
2022-08-14T08:26:30.937Z,32.50
2022-08-14T08:29:03.142Z,32.89
2022-08-14T08:31:49.002Z,33.41
2022-08-14T08:34:24.330Z,33.96
2022-08-14T08:37:01.679Z,34.22
2022-08-14T08:40:01.732Z,34.70
2022-08-14T08:42:41.190Z,34.99
2022-08-14T08:45:17.863Z,35.57
2022-08-14T08:47:51.295Z,36.26
2022-08-14T08:53:11.125Z,36.76
2022-08-14T08:55:45.990Z,36.14
2022-08-14T08:58:20.259Z,36.47
2022-08-14T09:01:00.180Z,36.14
2022-08-14T09:03:32.419Z,34.75
2022-08-14T09:06:53.826Z,35.01
2022-08-14T09:08:58.033Z,35.70
2022-08-14T09:11:30.449Z,35.84
2022-08-14T09:14:05.596Z,35.01
2022-08-14T09:16:37.939Z,35.05
2022-08-14T09:19:10.938Z,35.14
2022-08-14T09:21:43.011Z,34.73
2022-08-14T09:24:28.094Z,34.71
2022-08-14T09:27:06.753Z,34.53
2022-08-14T09:29:39.121Z,34.82
2022-08-14T09:32:57.951Z,34.93
2022-08-14T09:35:39.375Z,35.12
2022-08-14T09:39:21.161Z,34.86
2022-08-14T09:42:33.814Z,34.78
2022-08-14T09:45:20.168Z,34.70
2022-08-14T09:47:55.705Z,34.76
2022-08-14T09:50:48.878Z,34.25
2022-08-14T09:54:18.203Z,34.44
2022-08-14T09:56:56.913Z,34.36
2022-08-14T09:59:41.755Z,34.45
2022-08-14T10:02:22.137Z,34.25
2022-08-14T10:05:10.146Z,34.39
2022-08-14T10:07:53.732Z,34.74
2022-08-14T10:10:41.863Z,34.79
2022-08-14T10:13:25.996Z,34.56
2022-08-14T10:16:03.052Z,34.73
2022-08-14T10:18:35.251Z,34.83
2022-08-14T10:21:16.422Z,34.98
2022-08-14T10:23:52.550Z,35.33
2022-08-14T10:26:28.399Z,35.48
2022-08-14T10:29:18.699Z,35.64
2022-08-14T10:31:59.572Z,35.54
2022-08-14T10:34:36.567Z,35.78
2022-08-14T10:37:15.150Z,35.16
2022-08-14T10:40:10.707Z,35.40
2022-08-14T10:42:53.387Z,35.53
2022-08-14T10:45:35.694Z,35.43
2022-08-14T10:48:23.688Z,35.70
2022-08-14T10:51:08.485Z,36.26
2022-08-14T10:53:40.809Z,36.84
2022-08-14T10:56:21.561Z,37.18
2022-08-14T10:59:08.791Z,37.32
2022-08-14T11:01:42.935Z,37.89
2022-08-14T11:04:30.795Z,38.09
2022-08-14T11:07:05.877Z,38.04
2022-08-14T11:09:41.951Z,38.30
2022-08-14T11:12:34.372Z,38.63
2022-08-14T11:15:09.974Z,39.44
2022-08-14T11:17:42.070Z,40.38
2022-08-14T11:20:30.800Z,40.53
2022-08-14T11:23:03.154Z,40.16
2022-08-14T11:25:44.445Z,39.82
2022-08-14T11:28:48.613Z,39.93
2022-08-14T11:31:23.974Z,40.05
2022-08-14T11:33:58.482Z,40.38
2022-08-14T11:37:02.340Z,40.45
2022-08-14T11:39:35.050Z,41.32
2022-08-14T11:42:56.240Z,41.91
2022-08-14T11:45:17.061Z,42.71
2022-08-14T11:48:12.575Z,43.12
2022-08-14T11:50:50.666Z,43.02
2022-08-14T11:53:33.337Z,42.08
2022-08-14T11:56:06.493Z,40.69
2022-08-14T11:58:43.542Z,41.13
2022-08-14T12:01:15.871Z,41.83
2022-08-14T12:03:52.144Z,42.77
2022-08-14T12:06:39.389Z,43.28
2022-08-14T12:09:15.225Z,43.81
2022-08-14T12:11:51.472Z,42.57
2022-08-14T12:14:30.950Z,40.96
2022-08-14T12:17:11.750Z,41.03
2022-08-14T12:20:06.470Z,40.59
2022-08-14T12:22:44.546Z,39.99
2022-08-14T12:25:24.899Z,38.49
2022-08-14T12:28:01.654Z,39.31
2022-08-14T12:30:44.441Z,41.24
2022-08-14T12:33:34.053Z,42.34
2022-08-14T12:36:20.964Z,43.00
2022-08-14T12:38:55.068Z,43.66
2022-08-14T12:41:37.215Z,44.45
2022-08-14T12:44:09.459Z,44.16
2022-08-14T12:46:43.373Z,43.51
2022-08-14T12:49:18.894Z,43.43
2022-08-14T12:51:59.693Z,43.38
2022-08-14T12:54:32.620Z,43.54
2022-08-14T12:57:19.390Z,43.91
2022-08-14T12:59:53.565Z,44.03
2022-08-14T13:02:27.614Z,44.27
2022-08-14T13:04:59.846Z,43.48
2022-08-14T13:07:33.239Z,42.01
2022-08-14T13:10:47.218Z,40.02
2022-08-14T13:13:15.613Z,38.92
2022-08-14T13:15:57.193Z,39.65
2022-08-14T13:18:31.671Z,39.38
2022-08-14T13:21:05.687Z,38.91
2022-08-14T13:23:41.129Z,39.15
2022-08-14T13:26:17.370Z,38.94
2022-08-14T13:29:02.446Z,38.58
2022-08-14T13:31:39.105Z,38.43
2022-08-14T13:34:16.156Z,38.73
2022-08-14T13:36:54.693Z,38.10
2022-08-14T13:39:36.432Z,37.11
2022-08-14T13:42:13.436Z,36.56
2022-08-14T13:44:46.198Z,36.79
2022-08-14T13:47:20.162Z,37.35
2022-08-14T13:49:57.571Z,37.85
2022-08-14T13:52:55.526Z,38.24
2022-08-14T13:55:30.635Z,38.15
2022-08-14T13:58:05.202Z,37.86
2022-08-14T14:00:53.137Z,36.92
2022-08-14T14:05:59.063Z,36.52
2022-08-14T14:08:46.778Z,36.69
2022-08-14T14:11:24.286Z,36.80
2022-08-14T14:14:00.002Z,36.54
2022-08-14T14:16:33.036Z,36.31
2022-08-14T14:19:09.379Z,35.98
2022-08-14T14:21:42.494Z,35.10
2022-08-14T14:24:15.371Z,34.65
2022-08-14T14:26:50.205Z,34.44
2022-08-14T14:29:26.371Z,34.25
2022-08-14T14:32:02.039Z,34.38
2022-08-14T14:34:37.799Z,34.51
2022-08-14T14:37:15.613Z,34.23
2022-08-14T14:40:52.662Z,34.15
2022-08-14T14:42:53.262Z,34.11
2022-08-14T14:45:28.394Z,34.10
2022-08-14T14:48:00.990Z,34.06
2022-08-14T14:50:34.138Z,34.03
2022-08-14T14:53:13.254Z,34.14
2022-08-14T14:56:46.625Z,34.21
2022-08-14T14:58:41.997Z,34.47
2022-08-14T15:01:15.885Z,34.52
2022-08-14T15:03:48.152Z,34.48
2022-08-14T15:06:29.492Z,34.52
2022-08-14T15:09:04.692Z,34.44
2022-08-14T15:11:37.085Z,34.38
2022-08-14T15:14:55.246Z,34.18
2022-08-14T15:17:02.847Z,34.20
2022-08-14T15:19:35.450Z,34.46
2022-08-14T15:22:10.442Z,34.56
2022-08-14T15:24:46.553Z,34.55
2022-08-14T15:27:26.172Z,34.37
2022-08-14T15:29:59.565Z,34.37
2022-08-14T15:32:31.741Z,34.23
2022-08-14T15:35:04.862Z,34.10
2022-08-14T15:37:44.415Z,34.23
2022-08-14T15:40:22.179Z,34.36
2022-08-14T15:42:54.750Z,34.14
2022-08-14T15:45:28.043Z,33.94
2022-08-14T15:48:02.117Z,33.98
2022-08-14T15:50:36.272Z,33.96
2022-08-14T15:53:09.220Z,33.86
2022-08-14T15:55:44.281Z,33.82
2022-08-14T15:58:16.976Z,33.67
2022-08-14T16:01:10.688Z,33.43
2022-08-14T16:03:46.321Z,33.35
2022-08-14T16:06:20.902Z,33.32
2022-08-14T16:08:58.719Z,33.33
2022-08-14T16:11:32.940Z,33.19
2022-08-14T16:14:06.782Z,33.32
2022-08-14T16:16:51.597Z,33.42
2022-08-14T16:19:31.929Z,33.56
2022-08-14T16:22:58.063Z,33.58
2022-08-14T16:25:05.725Z,33.52
2022-08-14T16:27:41.364Z,33.45
2022-08-14T16:30:25.184Z,33.33
2022-08-14T16:33:01.298Z,33.23
2022-08-14T16:35:42.697Z,33.14
2022-08-14T16:38:46.472Z,33.09
2022-08-14T16:41:26.523Z,33.09
2022-08-14T16:44:21.893Z,33.06
2022-08-14T16:47:22.641Z,33.02
2022-08-14T16:50:04.502Z,33.00
2022-08-14T16:52:44.295Z,32.90
2022-08-14T16:55:18.145Z,32.86
2022-08-14T16:57:58.504Z,32.78
2022-08-14T17:00:44.084Z,32.70
2022-08-14T17:03:17.186Z,32.71
2022-08-14T17:05:49.401Z,32.57
2022-08-14T17:08:41.882Z,32.41
2022-08-14T17:11:15.420Z,32.25
2022-08-14T17:14:00.518Z,32.23
2022-08-14T17:16:39.181Z,32.14
2022-08-14T17:19:14.192Z,32.15
2022-08-14T17:21:52.346Z,32.10
2022-08-14T17:24:57.896Z,31.98
2022-08-14T17:27:23.112Z,31.90
2022-08-14T17:29:57.772Z,31.82
2022-08-14T17:32:56.178Z,31.78
2022-08-14T17:35:58.159Z,31.67
2022-08-14T17:38:39.581Z,31.58
2022-08-14T17:41:32.984Z,31.56
2022-08-14T17:44:34.359Z,31.46
2022-08-14T17:47:17.811Z,31.44
2022-08-14T17:49:52.316Z,31.40
2022-08-14T17:52:34.853Z,31.40
2022-08-14T17:56:01.428Z,31.40
2022-08-14T17:58:20.351Z,31.32
2022-08-14T18:01:04.675Z,31.29
2022-08-14T18:03:50.677Z,31.17
2022-08-14T18:06:39.592Z,31.12
2022-08-14T18:09:25.159Z,31.08
2022-08-14T18:12:07.412Z,31.09
2022-08-14T18:14:48.950Z,31.02
2022-08-14T18:17:26.108Z,30.95
2022-08-14T18:19:58.872Z,30.92
2022-08-14T18:22:39.452Z,30.86
2022-08-14T18:25:18.338Z,30.82
2022-08-14T18:27:52.641Z,30.79
2022-08-14T18:30:33.163Z,30.74
2022-08-14T18:33:22.926Z,30.68
2022-08-14T18:35:59.313Z,30.63
2022-08-14T18:38:46.472Z,30.56
2022-08-14T18:41:37.412Z,30.51
2022-08-14T18:44:11.111Z,30.43
2022-08-14T18:47:10.181Z,30.40
2022-08-14T18:49:57.863Z,30.33
2022-08-14T18:52:41.703Z,30.32
2022-08-14T18:55:18.969Z,30.28
2022-08-14T18:57:58.268Z,30.25
2022-08-14T19:00:33.798Z,30.22
2022-08-14T19:03:33.815Z,30.19
2022-08-14T19:06:10.870Z,30.14
2022-08-14T19:08:50.498Z,30.06
2022-08-14T19:11:32.470Z,30.02
2022-08-14T19:14:07.227Z,29.96
2022-08-14T19:16:42.944Z,29.89
2022-08-14T19:19:20.082Z,29.87
2022-08-14T19:21:57.212Z,29.85
2022-08-14T19:24:44.199Z,29.82
2022-08-14T19:27:37.792Z,29.79
2022-08-14T19:30:19.863Z,29.76
2022-08-14T19:32:57.869Z,29.72
2022-08-14T19:35:49.964Z,29.68
2022-08-14T19:38:55.062Z,29.62
2022-08-14T19:41:34.038Z,29.58
2022-08-14T19:44:20.123Z,29.54
2022-08-14T19:47:04.888Z,29.49
2022-08-14T19:50:30.555Z,29.45
2022-08-14T19:52:37.363Z,29.39
2022-08-14T19:55:20.403Z,29.35
2022-08-14T19:58:07.442Z,29.31
2022-08-14T20:00:56.010Z,29.25
2022-08-14T20:04:00.375Z,29.21
2022-08-14T20:06:46.596Z,29.18
2022-08-14T20:11:02.962Z,29.15
2022-08-14T20:12:29.194Z,29.13
2022-08-14T20:15:15.404Z,29.08
2022-08-14T20:17:53.524Z,29.08
2022-08-14T20:20:31.630Z,29.03
2022-08-14T20:23:16.640Z,29.01
2022-08-14T20:25:56.897Z,28.97
2022-08-14T20:28:32.822Z,28.96
2022-08-14T20:31:18.712Z,28.93
2022-08-14T20:34:08.002Z,28.90
2022-08-14T20:37:10.435Z,28.90
2022-08-14T20:39:54.600Z,28.90
2022-08-14T20:42:50.447Z,28.88
2022-08-14T20:45:27.583Z,28.86
2022-08-14T20:48:01.823Z,28.88
2022-08-14T20:50:44.900Z,28.87
2022-08-14T20:53:36.567Z,28.88
2022-08-14T20:56:30.333Z,28.86
2022-08-14T20:59:25.748Z,28.82
2022-08-14T21:02:00.499Z,28.82
2022-08-14T21:05:00.710Z,28.74
2022-08-14T21:07:36.147Z,28.71
2022-08-14T21:10:36.030Z,28.65
2022-08-14T21:14:09.260Z,28.60
2022-08-14T21:16:33.196Z,28.53
2022-08-14T21:19:02.287Z,28.49
2022-08-14T21:21:41.743Z,28.44
2022-08-14T21:24:38.792Z,28.39
2022-08-14T21:27:22.792Z,28.37
2022-08-14T21:29:56.478Z,28.30
2022-08-14T21:32:47.343Z,28.24
2022-08-14T21:35:23.026Z,28.20
2022-08-14T21:37:57.132Z,28.20
2022-08-14T21:40:40.254Z,28.15
2022-08-14T21:43:20.236Z,28.08
2022-08-14T21:45:58.765Z,28.03
2022-08-14T21:48:34.085Z,28.00
2022-08-14T21:51:54.235Z,27.97
2022-08-14T21:54:01.398Z,27.86
2022-08-14T21:56:41.923Z,27.78
2022-08-14T21:59:34.182Z,27.74
2022-08-14T22:02:08.035Z,27.69
2022-08-14T22:05:03.548Z,27.69
2022-08-14T22:07:36.837Z,27.61
2022-08-14T22:10:14.238Z,27.61
2022-08-14T22:13:00.324Z,27.57
2022-08-14T22:15:33.385Z,27.54
2022-08-14T22:18:06.378Z,27.52
2022-08-14T22:20:41.080Z,27.48
2022-08-14T22:23:13.531Z,27.45
2022-08-14T22:25:46.221Z,27.41
2022-08-14T22:28:32.933Z,27.40
2022-08-14T22:31:18.392Z,27.39
2022-08-14T22:33:57.779Z,27.36
2022-08-14T22:36:49.055Z,27.33
2022-08-14T22:40:54.002Z,27.30
2022-08-14T22:42:22.941Z,27.24
2022-08-14T22:44:56.746Z,27.22
2022-08-14T22:47:34.562Z,27.25
2022-08-14T22:50:29.089Z,27.23
2022-08-14T22:53:06.682Z,27.19
2022-08-14T22:55:40.186Z,27.16
2022-08-14T22:58:17.090Z,27.19
2022-08-14T23:00:49.796Z,27.20
2022-08-14T23:03:23.111Z,27.17
2022-08-14T23:05:55.106Z,27.13
2022-08-14T23:08:59.358Z,27.11
2022-08-14T23:11:19.453Z,27.17
2022-08-14T23:13:54.838Z,27.15
2022-08-14T23:16:26.836Z,27.21
2022-08-14T23:18:58.963Z,27.21
2022-08-14T23:21:31.080Z,27.24
2022-08-14T23:24:06.114Z,27.26
2022-08-14T23:26:47.792Z,27.26
2022-08-14T23:29:22.080Z,27.28
2022-08-14T23:31:56.968Z,27.28
2022-08-14T23:34:31.328Z,27.28
2022-08-14T23:37:04.632Z,27.29
2022-08-14T23:39:39.237Z,27.29
2022-08-14T23:42:17.968Z,27.29
2022-08-14T23:44:50.697Z,27.31
2022-08-14T23:47:26.425Z,27.33
2022-08-14T23:50:07.556Z,27.31
2022-08-14T23:53:06.812Z,27.27
2022-08-14T23:55:34.432Z,27.24
2022-08-14T23:58:07.712Z,27.24
